createdAt,value
2022-08-07T00:02:37.482Z,99936.47
2022-08-07T00:05:10.459Z,99942.44
2022-08-07T00:07:41.617Z,99939.91
2022-08-07T00:10:26.618Z,99941.09
2022-08-07T00:13:02.212Z,99940.63
2022-08-07T00:15:46.418Z,99931.69
2022-08-07T00:18:24.426Z,99934.19
2022-08-07T00:20:57.584Z,99922.72
2022-08-07T00:23:32.670Z,99932.34
2022-08-07T00:26:18.512Z,99934.78
2022-08-07T00:28:58.386Z,99945.94
2022-08-07T00:31:37.382Z,99946.91
2022-08-07T00:34:11.546Z,99952.28
2022-08-07T00:36:43.286Z,99953.84
2022-08-07T00:39:16.644Z,99962.34
2022-08-07T00:42:04.896Z,99961.53
2022-08-07T00:44:38.375Z,99955.56
2022-08-07T00:47:15.918Z,99953.31
2022-08-07T00:50:19.215Z,99959.72
2022-08-07T00:52:53.038Z,99956.41
2022-08-07T00:55:46.583Z,99965.50
2022-08-07T00:58:16.250Z,99967.34
2022-08-07T01:00:53.652Z,99966.91
2022-08-07T01:03:54.898Z,99970.03
2022-08-07T01:06:15.785Z,99968.81
2022-08-07T01:08:53.297Z,99973.88
2022-08-07T01:12:08.978Z,99972.31
2022-08-07T01:14:21.231Z,99977.50
2022-08-07T01:17:00.262Z,99969.00
2022-08-07T01:19:38.555Z,99970.72
2022-08-07T01:22:16.240Z,99974.88
2022-08-07T01:24:53.656Z,99969.34
2022-08-07T01:27:32.319Z,99980.72
2022-08-07T01:30:02.871Z,99969.72
2022-08-07T01:32:35.475Z,99975.94
2022-08-07T01:35:05.911Z,99977.34
2022-08-07T01:37:42.090Z,99971.41
2022-08-07T01:40:14.838Z,99979.66
2022-08-07T01:42:57.341Z,99979.06
2022-08-07T01:45:36.464Z,99969.19
2022-08-07T01:48:18.090Z,99957.19
2022-08-07T01:50:57.344Z,99955.09
2022-08-07T01:54:12.266Z,99945.41
2022-08-07T01:56:29.145Z,99946.94
2022-08-07T01:59:15.751Z,99948.88
2022-08-07T02:02:00.047Z,99948.59
2022-08-07T02:04:40.033Z,99952.81
2022-08-07T02:07:45.131Z,99954.03
2022-08-07T02:10:29.742Z,99953.38
2022-08-07T02:13:02.702Z,99952.03
2022-08-07T02:15:33.979Z,99949.66
2022-08-07T02:18:06.720Z,99944.72
2022-08-07T02:20:39.892Z,99952.75
2022-08-07T02:23:11.729Z,99956.63
2022-08-07T02:26:31.905Z,99973.38
2022-08-07T02:28:39.897Z,99972.75
2022-08-07T02:31:28.239Z,99976.78
2022-08-07T02:34:03.773Z,99970.59
2022-08-07T02:36:36.013Z,99970.34
2022-08-07T02:39:16.331Z,99980.56
2022-08-07T02:41:54.815Z,99985.09
2022-08-07T02:44:34.360Z,99984.53
2022-08-07T02:47:06.620Z,99976.50
2022-08-07T02:49:57.965Z,99970.94
2022-08-07T02:52:32.651Z,99978.66
2022-08-07T02:55:27.294Z,99983.28
2022-08-07T02:58:06.054Z,99989.75
2022-08-07T03:00:47.377Z,99990.56
2022-08-07T03:03:22.590Z,99980.69
2022-08-07T03:05:55.638Z,99985.41
2022-08-07T03:08:29.303Z,99985.22
2022-08-07T03:11:00.784Z,99985.78
2022-08-07T03:13:39.126Z,99990.56
2022-08-07T03:16:22.967Z,99991.31
2022-08-07T03:18:58.542Z,99987.63
2022-08-07T03:21:33.029Z,99988.38
2022-08-07T03:24:20.341Z,99986.47
2022-08-07T03:26:58.209Z,99982.31
2022-08-07T03:29:36.600Z,99991.56
2022-08-07T03:32:13.109Z,99987.59
2022-08-07T03:34:47.503Z,99995.09
2022-08-07T03:37:46.376Z,99991.16
2022-08-07T03:40:27.506Z,99986.81
2022-08-07T03:43:01.666Z,99990.69
2022-08-07T03:45:39.671Z,99988.84
2022-08-07T03:48:13.870Z,99986.44
2022-08-07T03:50:55.675Z,99990.38
2022-08-07T03:54:01.988Z,99988.53
2022-08-07T03:56:33.472Z,99991.03
2022-08-07T03:59:10.054Z,99994.72
2022-08-07T04:01:49.050Z,100006.03
2022-08-07T04:04:19.860Z,100002.72
2022-08-07T04:06:50.809Z,100004.38
2022-08-07T04:09:23.689Z,100010.56
2022-08-07T04:12:24.947Z,100010.56
2022-08-07T04:14:49.087Z,100017.66
2022-08-07T04:17:23.715Z,100018.75
2022-08-07T04:20:15.502Z,100031.53
2022-08-07T04:22:53.363Z,100018.75
2022-08-07T04:25:39.004Z,100035.41
2022-08-07T04:28:13.514Z,100035.09
2022-08-07T04:30:56.791Z,100037.94
2022-08-07T04:33:30.997Z,100042.13
2022-08-07T04:36:06.400Z,100044.94
2022-08-07T04:38:37.597Z,100046.66
2022-08-07T04:41:08.307Z,100055.00
2022-08-07T04:44:09.750Z,100057.72
2022-08-07T04:46:59.731Z,100060.47
2022-08-07T04:49:57.353Z,100059.81
2022-08-07T04:52:50.991Z,100067.00
2022-08-07T04:58:11.157Z,100064.88
2022-08-07T04:58:47.470Z,100063.09
2022-08-07T05:01:20.978Z,100065.50
2022-08-07T05:04:12.347Z,100071.41
2022-08-07T05:06:57.701Z,100075.25
2022-08-07T05:09:45.938Z,100071.22
2022-08-07T05:12:27.292Z,100079.63
2022-08-07T05:15:23.392Z,100078.59
2022-08-07T05:18:00.462Z,100073.53
2022-08-07T05:20:37.801Z,100076.94
2022-08-07T05:23:15.485Z,100080.97
2022-08-07T05:26:11.883Z,100078.91
2022-08-07T05:28:40.455Z,100077.44
2022-08-07T05:31:14.519Z,100079.91
2022-08-07T05:33:51.340Z,100078.47
2022-08-07T05:36:36.364Z,100078.88
2022-08-07T05:40:14.104Z,100091.94
2022-08-07T05:42:07.507Z,100084.47
2022-08-07T05:44:46.461Z,100082.81
2022-08-07T05:47:20.935Z,100069.94
2022-08-07T05:50:10.673Z,100079.69
2022-08-07T05:52:42.644Z,100076.34
2022-08-07T05:55:15.593Z,100088.22
2022-08-07T05:57:46.481Z,100080.34
2022-08-07T06:00:19.846Z,100077.53
2022-08-07T06:02:53.363Z,100078.75
2022-08-07T06:05:28.343Z,100075.44
2022-08-07T06:08:13.170Z,100082.94
2022-08-07T06:10:54.934Z,100081.03
2022-08-07T06:14:10.338Z,100076.25
2022-08-07T06:16:17.902Z,100086.94
2022-08-07T06:18:51.945Z,100089.91
2022-08-07T06:22:16.443Z,100090.91
2022-08-07T06:24:45.530Z,100083.84
2022-08-07T06:27:09.798Z,100082.97
2022-08-07T06:29:40.450Z,100084.59
2022-08-07T06:32:10.744Z,100088.09
2022-08-07T06:34:45.360Z,100074.34
2022-08-07T06:37:17.014Z,100088.69
2022-08-07T06:40:16.097Z,100091.09
2022-08-07T06:42:43.346Z,100083.25
2022-08-07T06:45:18.653Z,100078.25
2022-08-07T06:47:58.648Z,100084.47
2022-08-07T06:50:30.623Z,100080.59
2022-08-07T06:53:04.104Z,100089.03
2022-08-07T06:55:53.745Z,100088.28
2022-08-07T06:58:32.276Z,100088.16
2022-08-07T07:01:03.169Z,100085.81
2022-08-07T07:03:48.708Z,100080.00
2022-08-07T07:06:23.957Z,100075.72
2022-08-07T07:08:58.058Z,100082.53
2022-08-07T07:12:09.167Z,100076.09
2022-08-07T07:14:28.088Z,100079.72
2022-08-07T07:17:06.025Z,100082.69
2022-08-07T07:19:57.223Z,100080.63
2022-08-07T07:22:35.895Z,100088.66
2022-08-07T07:26:31.454Z,100092.78
2022-08-07T07:28:07.537Z,100097.59
2022-08-07T07:31:02.055Z,100095.22
2022-08-07T07:33:36.845Z,100089.28
2022-08-07T07:36:13.151Z,100095.06
2022-08-07T07:38:46.176Z,100097.25
2022-08-07T07:41:19.456Z,100096.63
2022-08-07T07:44:17.558Z,100096.78
2022-08-07T07:46:55.352Z,100093.53
2022-08-07T07:50:33.756Z,100097.97
2022-08-07T07:52:24.879Z,100100.75
2022-08-07T07:54:57.316Z,100095.31
2022-08-07T07:57:51.480Z,100100.53
2022-08-07T08:00:29.757Z,100101.41
2022-08-07T08:03:09.407Z,100088.75
2022-08-07T08:05:54.276Z,100092.06
2022-08-07T08:08:37.042Z,100097.16
2022-08-07T08:11:13.846Z,100106.09
2022-08-07T08:13:53.989Z,100108.03
2022-08-07T08:16:30.943Z,100108.16
2022-08-07T08:19:17.341Z,100107.22
2022-08-07T08:22:10.578Z,100088.22
2022-08-07T08:25:04.719Z,100103.63
2022-08-07T08:27:56.911Z,100106.94
2022-08-07T08:30:34.803Z,100107.84
2022-08-07T08:33:15.376Z,100104.50
2022-08-07T08:35:52.002Z,100118.25
2022-08-07T08:38:29.365Z,100120.41
2022-08-07T08:41:05.495Z,100114.91
2022-08-07T08:43:50.456Z,100118.44
2022-08-07T08:46:40.636Z,100108.44
2022-08-07T08:49:33.618Z,100103.31
2022-08-07T08:52:25.121Z,100113.13
2022-08-07T08:55:07.686Z,100111.41
2022-08-07T08:57:43.009Z,100114.34
2022-08-07T09:00:17.040Z,100109.69
2022-08-07T09:02:59.340Z,100104.97
2022-08-07T09:05:42.035Z,100101.16
2022-08-07T09:08:28.831Z,100101.25
2022-08-07T09:11:14.078Z,100098.09
2022-08-07T09:14:06.971Z,100098.31
2022-08-07T09:16:51.549Z,100084.56
2022-08-07T09:19:51.378Z,100095.31
2022-08-07T09:24:34.985Z,100091.47
2022-08-07T09:25:42.616Z,100083.03
2022-08-07T09:30:05.933Z,100085.97
2022-08-07T09:31:38.835Z,100092.50
2022-08-07T09:34:21.680Z,100080.13
2022-08-07T09:37:04.728Z,100080.41
2022-08-07T09:39:55.163Z,100081.78
2022-08-07T09:42:45.849Z,100070.19
2022-08-07T09:47:51.359Z,100077.25
2022-08-07T09:48:28.730Z,100084.34
2022-08-07T09:52:09.376Z,100073.81
2022-08-07T09:54:11.664Z,100062.53
2022-08-07T09:57:13.627Z,100079.03
2022-08-07T10:00:02.057Z,100076.88
2022-08-07T10:03:08.166Z,100074.03
2022-08-07T10:06:17.277Z,100066.28
2022-08-07T10:09:07.387Z,100064.00
2022-08-07T10:12:15.488Z,100065.41
2022-08-07T10:15:21.770Z,100057.75
2022-08-07T10:18:17.468Z,100066.81
2022-08-07T10:21:19.639Z,100060.91
2022-08-07T10:24:21.504Z,100061.63
2022-08-07T10:27:10.458Z,100058.19
2022-08-07T10:30:04.357Z,100056.53
2022-08-07T10:33:14.832Z,100061.53
2022-08-07T10:36:11.449Z,100054.03
2022-08-07T10:38:54.820Z,100041.66
2022-08-07T10:41:51.537Z,100047.88
2022-08-07T10:44:38.459Z,100050.97
2022-08-07T10:47:27.043Z,100047.66
2022-08-07T10:50:25.925Z,100043.91
2022-08-07T10:53:08.181Z,100040.13
2022-08-07T10:55:46.920Z,100046.25
2022-08-07T10:58:36.643Z,100041.25
2022-08-07T11:01:23.977Z,100033.06
2022-08-07T11:04:23.115Z,100036.84
2022-08-07T11:07:15.023Z,100029.63
2022-08-07T11:10:08.443Z,100021.28
2022-08-07T11:12:49.719Z,100023.38
2022-08-07T11:15:37.213Z,100027.19
2022-08-07T11:18:13.189Z,100035.22
2022-08-07T11:20:51.355Z,100019.59
2022-08-07T11:23:38.720Z,100024.94
2022-08-07T11:26:16.390Z,100015.38
2022-08-07T11:28:55.618Z,100018.25
2022-08-07T11:31:35.505Z,100010.22
2022-08-07T11:34:16.502Z,100010.31
2022-08-07T11:37:00.456Z,100014.38
2022-08-07T11:40:00.087Z,100013.97
2022-08-07T11:42:43.975Z,100004.72
2022-08-07T11:45:35.318Z,100009.97
2022-08-07T11:48:29.740Z,100007.47
2022-08-07T11:51:41.684Z,99999.28
2022-08-07T11:54:25.365Z,99999.81
2022-08-07T11:57:12.848Z,99997.75
2022-08-07T12:00:10.778Z,99993.75
2022-08-07T12:03:45.120Z,99983.50
2022-08-07T12:06:39.049Z,99982.56
2022-08-07T12:09:23.583Z,99979.28
2022-08-07T12:12:10.434Z,99978.88
2022-08-07T12:14:55.426Z,99967.59
2022-08-07T12:17:58.740Z,99981.25
2022-08-07T12:20:36.551Z,99968.81
2022-08-07T12:24:05.479Z,99967.28
2022-08-07T12:26:49.167Z,99969.03
2022-08-07T12:29:37.908Z,99967.63
2022-08-07T12:32:17.230Z,99968.97
2022-08-07T12:34:53.445Z,99959.97
2022-08-07T12:38:09.784Z,99961.09
2022-08-07T12:40:47.595Z,99956.16
2022-08-07T12:44:02.415Z,99958.59
2022-08-07T12:46:32.280Z,99956.16
2022-08-07T12:49:25.551Z,99952.84
2022-08-07T12:52:17.930Z,99962.25
2022-08-07T12:55:03.811Z,99961.50
2022-08-07T12:58:01.306Z,99961.56
2022-08-07T13:00:49.486Z,99946.81
2022-08-07T13:04:02.597Z,99946.78
2022-08-07T13:07:02.634Z,99957.56
2022-08-07T13:10:19.470Z,99943.28
2022-08-07T13:12:54.552Z,99943.25
2022-08-07T13:15:51.185Z,99940.44
2022-08-07T13:18:34.249Z,99932.41
2022-08-07T13:21:10.836Z,99940.59
2022-08-07T13:24:02.258Z,99935.72
2022-08-07T13:26:46.214Z,99942.50
2022-08-07T13:29:22.230Z,99928.72
2022-08-07T13:32:00.206Z,99916.47
2022-08-07T13:34:57.530Z,99925.78
2022-08-07T13:37:34.875Z,99929.78
2022-08-07T13:40:36.459Z,99924.66
2022-08-07T13:43:11.884Z,99918.56
2022-08-07T13:46:20.656Z,99920.28
2022-08-07T13:48:41.859Z,99909.44
2022-08-07T13:52:19.064Z,99917.59
2022-08-07T13:54:23.496Z,99921.84
2022-08-07T13:56:59.863Z,99926.91
2022-08-07T13:59:34.169Z,99917.78
2022-08-07T14:02:12.915Z,99907.22
2022-08-07T14:04:54.982Z,99902.53
2022-08-07T14:07:33.547Z,99903.59
2022-08-07T14:10:17.560Z,99903.84
2022-08-07T14:12:58.736Z,99904.28
2022-08-07T14:15:35.104Z,99896.28
2022-08-07T14:18:23.663Z,99901.78
2022-08-07T14:21:08.310Z,99906.00
2022-08-07T14:24:01.944Z,99900.31
2022-08-07T14:26:50.679Z,99893.44
2022-08-07T14:30:09.731Z,99904.41
2022-08-07T14:32:17.482Z,99896.22
2022-08-07T14:34:52.520Z,99897.34
2022-08-07T14:37:39.291Z,99902.34
2022-08-07T14:40:26.358Z,99905.75
2022-08-07T14:43:58.386Z,99906.50
2022-08-07T14:45:56.097Z,99907.31
2022-08-07T14:48:33.061Z,99905.13
2022-08-07T14:51:15.619Z,99895.09
2022-08-07T14:54:05.851Z,99897.53
2022-08-07T14:56:44.415Z,99895.97
2022-08-07T15:00:04.898Z,99889.91
2022-08-07T15:02:33.961Z,99887.34
2022-08-07T15:05:20.253Z,99879.38
2022-08-07T15:07:56.486Z,99890.84
2022-08-07T15:10:30.670Z,99882.59
2022-08-07T15:13:11.888Z,99881.69
2022-08-07T15:16:05.388Z,99876.59
2022-08-07T15:18:47.756Z,99876.47
2022-08-07T15:21:59.378Z,99874.38
2022-08-07T15:25:15.781Z,99879.38
2022-08-07T15:27:12.000Z,99883.25
2022-08-07T15:30:10.333Z,99889.81
2022-08-07T15:33:01.600Z,99877.22
2022-08-07T15:36:00.786Z,99879.03
2022-08-07T15:38:51.742Z,99889.63
2022-08-07T15:44:24.122Z,99891.63
2022-08-07T15:47:03.404Z,99892.06
2022-08-07T15:52:34.922Z,99882.66
2022-08-07T15:55:11.592Z,99897.31
2022-08-07T15:57:48.544Z,99895.81
2022-08-07T16:00:22.728Z,99888.97
2022-08-07T16:03:21.706Z,99892.53
2022-08-07T16:05:59.337Z,99894.75
2022-08-07T16:08:38.859Z,99887.44
2022-08-07T16:11:26.458Z,99889.72
2022-08-07T16:14:19.090Z,99892.91
2022-08-07T16:17:15.349Z,99898.19
2022-08-07T16:20:33.418Z,99898.19
2022-08-07T16:23:52.941Z,99899.34
2022-08-07T16:26:59.338Z,99887.75
2022-08-07T16:30:10.722Z,99898.03
2022-08-07T16:32:54.303Z,99896.78
2022-08-07T16:35:56.662Z,99900.03
2022-08-07T16:39:02.188Z,99897.38
2022-08-07T16:45:14.779Z,99900.72
2022-08-07T16:48:28.531Z,99909.22
2022-08-07T16:51:57.546Z,99907.91
2022-08-07T16:54:19.343Z,99902.38
2022-08-07T16:57:05.085Z,99909.25
2022-08-07T16:59:58.144Z,99908.44
2022-08-07T17:02:51.503Z,99915.84
2022-08-07T17:05:41.563Z,99924.34
2022-08-07T17:09:08.587Z,99922.22
2022-08-07T17:12:04.139Z,99931.44
2022-08-07T17:14:44.857Z,99922.25
2022-08-07T17:17:44.123Z,99920.38
2022-08-07T17:20:33.158Z,99928.28
2022-08-07T17:23:12.902Z,99933.47
2022-08-07T17:25:56.454Z,99939.63
2022-08-07T17:28:38.350Z,99934.88
2022-08-07T17:31:16.353Z,99934.34
2022-08-07T17:34:17.914Z,99939.50
2022-08-07T17:36:57.428Z,99954.25
2022-08-07T17:39:58.943Z,99945.31
2022-08-07T17:42:59.606Z,99953.19
2022-08-07T17:45:43.103Z,99954.25
2022-08-07T17:48:30.838Z,99957.47
2022-08-07T17:51:11.562Z,99969.63
2022-08-07T17:54:00.983Z,99973.91
2022-08-07T17:56:35.917Z,99974.34
2022-08-07T17:59:20.914Z,99967.09
2022-08-07T18:02:00.739Z,99975.31
2022-08-07T18:04:39.838Z,99983.25
2022-08-07T18:07:28.689Z,99977.84
2022-08-07T18:10:29.109Z,99986.97
2022-08-07T18:13:40.662Z,99989.94
2022-08-07T18:16:30.984Z,99991.38
2022-08-07T18:21:11.945Z,99987.34
2022-08-07T18:22:15.082Z,100000.06
2022-08-07T18:24:51.697Z,99991.22
2022-08-07T18:28:03.695Z,100002.34
2022-08-07T18:30:54.372Z,99991.56
2022-08-07T18:33:54.790Z,100002.03
2022-08-07T18:36:35.066Z,99996.13
2022-08-07T18:40:05.565Z,100004.66
2022-08-07T18:42:20.044Z,99999.47
2022-08-07T18:45:42.964Z,100011.00
2022-08-07T18:48:00.718Z,100012.88
2022-08-07T18:51:16.730Z,100013.94
2022-08-07T18:54:31.263Z,100028.53
2022-08-07T18:57:30.138Z,100032.91
2022-08-07T19:00:32.746Z,100030.81
2022-08-07T19:03:11.894Z,100026.47
2022-08-07T19:06:03.529Z,100021.97
2022-08-07T19:08:48.066Z,100025.03
2022-08-07T19:11:36.602Z,100023.59
2022-08-07T19:14:20.209Z,100023.84
2022-08-07T19:17:06.006Z,100026.56
2022-08-07T19:19:48.832Z,100031.81
2022-08-07T19:22:31.004Z,100042.38
2022-08-07T19:25:06.345Z,100039.69
2022-08-07T19:28:57.638Z,100041.16
2022-08-07T19:30:55.808Z,100035.13
2022-08-07T19:33:31.259Z,100032.03
2022-08-07T19:36:08.638Z,100027.66
2022-08-07T19:38:53.248Z,100033.28
2022-08-07T19:41:39.000Z,100034.31
2022-08-07T19:44:21.962Z,100032.22
2022-08-07T19:46:58.052Z,100036.38
2022-08-07T19:49:58.491Z,100027.88
2022-08-07T19:52:24.614Z,100028.28
2022-08-07T19:54:59.807Z,100032.66
2022-08-07T19:58:02.986Z,100033.88
2022-08-07T20:00:34.638Z,100024.38
2022-08-07T20:03:33.810Z,100043.66
2022-08-07T20:06:15.341Z,100041.38
2022-08-07T20:08:48.905Z,100050.88
2022-08-07T20:12:01.323Z,100044.25
2022-08-07T20:14:31.438Z,100047.38
2022-08-07T20:17:09.094Z,100046.31
2022-08-07T20:19:48.148Z,100038.69
2022-08-07T20:22:34.046Z,100045.31
2022-08-07T20:25:12.519Z,100043.66
2022-08-07T20:27:58.571Z,100040.31
2022-08-07T20:30:36.030Z,100045.28
2022-08-07T20:33:36.352Z,100049.84
2022-08-07T20:36:03.846Z,100050.88
2022-08-07T20:38:35.710Z,100050.47
2022-08-07T20:41:25.428Z,100053.75
2022-08-07T20:43:59.007Z,100058.53
2022-08-07T20:46:33.382Z,100056.63
2022-08-07T20:49:59.672Z,100063.47
2022-08-07T20:52:01.187Z,100062.63
2022-08-07T20:54:32.273Z,100059.91
2022-08-07T20:57:10.173Z,100067.56
2022-08-07T21:00:07.010Z,100067.31
2022-08-07T21:02:54.089Z,100083.09
2022-08-07T21:05:52.630Z,100075.59
2022-08-07T21:08:36.599Z,100070.84
2022-08-07T21:11:14.320Z,100077.25
2022-08-07T21:14:20.147Z,100061.53
2022-08-07T21:17:06.698Z,100074.81
2022-08-07T21:19:51.798Z,100068.78
2022-08-07T21:22:34.039Z,100064.00
2022-08-07T21:25:14.746Z,100070.63
2022-08-07T21:28:02.114Z,100068.53
2022-08-07T21:30:46.482Z,100070.63
2022-08-07T21:33:24.230Z,100066.47
2022-08-07T21:36:31.493Z,100061.88
2022-08-07T21:39:45.574Z,100066.28
2022-08-07T21:42:41.946Z,100054.47
2022-08-07T21:46:03.534Z,100064.25
2022-08-07T21:48:29.092Z,100064.63
2022-08-07T21:51:20.374Z,100058.00
2022-08-07T21:53:59.388Z,100071.84
2022-08-07T21:56:49.004Z,100051.53
2022-08-07T22:00:02.945Z,100058.13
2022-08-07T22:02:33.149Z,100061.81
2022-08-07T22:05:08.113Z,100066.78
2022-08-07T22:07:58.633Z,100064.72
2022-08-07T22:10:33.763Z,100059.56
2022-08-07T22:13:13.782Z,100057.47
2022-08-07T22:16:39.329Z,100052.47
2022-08-07T22:18:45.021Z,100053.69
2022-08-07T22:21:21.364Z,100045.63
2022-08-07T22:23:57.695Z,100046.56
2022-08-07T22:26:33.709Z,100041.94
2022-08-07T22:29:12.874Z,100052.78
2022-08-07T22:32:06.018Z,100052.69
2022-08-07T22:34:49.775Z,100050.78
2022-08-07T22:38:04.190Z,100052.38
2022-08-07T22:40:32.525Z,100056.53
2022-08-07T22:43:10.906Z,100059.22
2022-08-07T22:47:02.099Z,100062.94
2022-08-07T22:49:19.022Z,100057.38
2022-08-07T22:52:10.017Z,100050.34
2022-08-07T22:54:58.069Z,100052.19
2022-08-07T22:58:07.317Z,100045.81
2022-08-07T23:00:45.197Z,100044.78
2022-08-07T23:03:57.949Z,100048.09
2022-08-07T23:06:49.963Z,100049.75
2022-08-07T23:10:01.138Z,100046.06
2022-08-07T23:12:34.047Z,100044.84
2022-08-07T23:16:04.243Z,100042.53
2022-08-07T23:18:34.026Z,100046.81
2022-08-07T23:21:21.081Z,100039.91
2022-08-07T23:24:23.789Z,100044.84
2022-08-07T23:27:34.047Z,100038.53
2022-08-07T23:30:38.324Z,100047.69
2022-08-07T23:34:33.672Z,100041.94
2022-08-07T23:37:17.567Z,100051.88
2022-08-07T23:39:45.554Z,100051.25
2022-08-07T23:42:23.173Z,100060.25
2022-08-07T23:45:33.188Z,100067.94
2022-08-07T23:48:56.192Z,100066.03
2022-08-07T23:53:01.647Z,100062.81
2022-08-07T23:54:44.187Z,100059.13
2022-08-07T23:57:27.759Z,100059.72
